sensor_id;sensor_type;location;lat;lon;timestamp;P1;durP1;ratioP1;P2;durP2;ratioP2
73791;SDS011;62122;41.112;16.694;2022-08-03T00:00:14;5.95;;;3.60;;
73791;SDS011;62122;41.112;16.694;2022-08-03T00:03:18;6.18;;;3.40;;
73791;SDS011;62122;41.112;16.694;2022-08-03T00:06:25;5.88;;;3.80;;
73791;SDS011;62122;41.112;16.694;2022-08-03T00:09:30;7.38;;;3.90;;
73791;SDS011;62122;41.112;16.694;2022-08-03T00:12:34;7.18;;;4.07;;
73791;SDS011;62122;41.112;16.694;2022-08-03T00:15:39;6.20;;;4.00;;
73791;SDS011;62122;41.112;16.694;2022-08-03T00:18:44;6.43;;;3.20;;
73791;SDS011;62122;41.112;16.694;2022-08-03T00:21:48;5.75;;;3.42;;
73791;SDS011;62122;41.112;16.694;2022-08-03T00:24:51;7.57;;;3.70;;
73791;SDS011;62122;41.112;16.694;2022-08-03T00:27:56;5.75;;;3.58;;
73791;SDS011;62122;41.112;16.694;2022-08-03T00:31:01;5.63;;;3.45;;
73791;SDS011;62122;41.112;16.694;2022-08-03T00:34:04;6.93;;;3.92;;
73791;SDS011;62122;41.112;16.694;2022-08-03T00:37:08;7.03;;;3.42;;
73791;SDS011;62122;41.112;16.694;2022-08-03T00:40:12;6.22;;;3.83;;
73791;SDS011;62122;41.112;16.694;2022-08-03T00:43:17;6.97;;;3.85;;
73791;SDS011;62122;41.112;16.694;2022-08-03T00:46:30;5.20;;;3.67;;
73791;SDS011;62122;41.112;16.694;2022-08-03T00:49:38;5.70;;;3.85;;
73791;SDS011;62122;41.112;16.694;2022-08-03T00:52:42;7.40;;;3.50;;
73791;SDS011;62122;41.112;16.694;2022-08-03T00:55:48;6.43;;;3.83;;
73791;SDS011;62122;41.112;16.694;2022-08-03T00:58:51;6.50;;;4.13;;
73791;SDS011;62122;41.112;16.694;2022-08-03T01:01:59;6.80;;;3.88;;
73791;SDS011;62122;41.112;16.694;2022-08-03T01:05:03;5.88;;;3.40;;
73791;SDS011;62122;41.112;16.694;2022-08-03T01:08:13;5.30;;;3.97;;
73791;SDS011;62122;41.112;16.694;2022-08-03T01:11:47;5.07;;;3.40;;
73791;SDS011;62122;41.112;16.694;2022-08-03T01:15:14;5.35;;;3.40;;
73791;SDS011;62122;41.112;16.694;2022-08-03T01:18:40;7.95;;;3.70;;
73791;SDS011;62122;41.112;16.694;2022-08-03T01:32:20;6.60;;;4.18;;
73791;SDS011;62122;41.112;16.694;2022-08-03T01:35:31;8.02;;;4.30;;
73791;SDS011;62122;41.112;16.694;2022-08-03T01:38:45;9.18;;;4.00;;
73791;SDS011;62122;41.112;16.694;2022-08-03T01:42:02;7.18;;;3.90;;
73791;SDS011;62122;41.112;16.694;2022-08-03T01:45:09;7.70;;;3.78;;
73791;SDS011;62122;41.112;16.694;2022-08-03T01:48:16;8.10;;;4.18;;
73791;SDS011;62122;41.112;16.694;2022-08-03T01:51:21;12.32;;;4.10;;
73791;SDS011;62122;41.112;16.694;2022-08-03T01:54:24;7.50;;;3.92;;
73791;SDS011;62122;41.112;16.694;2022-08-03T01:57:30;8.45;;;4.35;;
73791;SDS011;62122;41.112;16.694;2022-08-03T02:00:34;8.48;;;3.80;;
73791;SDS011;62122;41.112;16.694;2022-08-03T02:03:40;6.97;;;4.28;;
73791;SDS011;62122;41.112;16.694;2022-08-03T02:06:46;7.78;;;4.55;;
73791;SDS011;62122;41.112;16.694;2022-08-03T02:09:51;6.15;;;3.58;;
73791;SDS011;62122;41.112;16.694;2022-08-03T02:12:58;6.43;;;4.50;;
73791;SDS011;62122;41.112;16.694;2022-08-03T02:16:05;5.43;;;4.30;;
73791;SDS011;62122;41.112;16.694;2022-08-03T02:19:11;7.03;;;4.30;;
73791;SDS011;62122;41.112;16.694;2022-08-03T02:22:16;8.88;;;4.50;;
73791;SDS011;62122;41.112;16.694;2022-08-03T02:25:21;7.10;;;4.40;;
73791;SDS011;62122;41.112;16.694;2022-08-03T02:28:45;7.57;;;4.22;;
73791;SDS011;62122;41.112;16.694;2022-08-03T02:31:53;5.95;;;4.22;;
73791;SDS011;62122;41.112;16.694;2022-08-03T02:35:01;7.03;;;4.10;;
73791;SDS011;62122;41.112;16.694;2022-08-03T02:38:07;6.13;;;3.80;;
73791;SDS011;62122;41.112;16.694;2022-08-03T02:41:14;8.48;;;4.13;;
73791;SDS011;62122;41.112;16.694;2022-08-03T02:44:22;7.63;;;4.50;;
73791;SDS011;62122;41.112;16.694;2022-08-03T02:47:28;7.18;;;4.47;;
73791;SDS011;62122;41.112;16.694;2022-08-03T02:50:33;8.70;;;5.00;;
73791;SDS011;62122;41.112;16.694;2022-08-03T02:53:37;7.30;;;4.45;;
73791;SDS011;62122;41.112;16.694;2022-08-03T02:56:43;7.38;;;4.60;;
73791;SDS011;62122;41.112;16.694;2022-08-03T02:59:49;7.00;;;4.50;;
73791;SDS011;62122;41.112;16.694;2022-08-03T03:02:55;7.68;;;4.72;;
73791;SDS011;62122;41.112;16.694;2022-08-03T03:06:01;6.70;;;4.72;;
73791;SDS011;62122;41.112;16.694;2022-08-03T03:09:06;6.03;;;4.25;;
73791;SDS011;62122;41.112;16.694;2022-08-03T03:12:12;8.57;;;4.68;;
73791;SDS011;62122;41.112;16.694;2022-08-03T03:15:17;8.05;;;4.63;;
73791;SDS011;62122;41.112;16.694;2022-08-03T03:18:21;7.00;;;4.03;;
73791;SDS011;62122;41.112;16.694;2022-08-03T03:21:27;11.35;;;4.28;;
73791;SDS011;62122;41.112;16.694;2022-08-03T03:24:33;7.82;;;4.68;;
73791;SDS011;62122;41.112;16.694;2022-08-03T03:27:40;7.68;;;4.95;;
73791;SDS011;62122;41.112;16.694;2022-08-03T03:30:44;6.78;;;4.75;;
73791;SDS011;62122;41.112;16.694;2022-08-03T03:33:48;15.65;;;5.55;;
73791;SDS011;62122;41.112;16.694;2022-08-03T03:36:52;7.65;;;4.10;;
73791;SDS011;62122;41.112;16.694;2022-08-03T03:39:56;11.32;;;5.22;;
73791;SDS011;62122;41.112;16.694;2022-08-03T03:43:01;8.02;;;4.60;;
73791;SDS011;62122;41.112;16.694;2022-08-03T03:46:05;8.55;;;4.90;;
73791;SDS011;62122;41.112;16.694;2022-08-03T03:49:09;10.75;;;6.20;;
73791;SDS011;62122;41.112;16.694;2022-08-03T03:52:13;15.95;;;8.90;;
73791;SDS011;62122;41.112;16.694;2022-08-03T03:55:18;15.90;;;7.15;;
73791;SDS011;62122;41.112;16.694;2022-08-03T03:58:22;11.75;;;6.47;;
73791;SDS011;62122;41.112;16.694;2022-08-03T04:01:27;29.27;;;7.15;;
73791;SDS011;62122;41.112;16.694;2022-08-03T04:04:31;13.63;;;5.50;;
73791;SDS011;62122;41.112;16.694;2022-08-03T04:07:57;15.20;;;5.30;;
73791;SDS011;62122;41.112;16.694;2022-08-03T04:11:39;11.68;;;4.95;;
73791;SDS011;62122;41.112;16.694;2022-08-03T04:14:48;13.43;;;5.45;;
73791;SDS011;62122;41.112;16.694;2022-08-03T04:17:54;9.07;;;5.10;;
73791;SDS011;62122;41.112;16.694;2022-08-03T04:21:01;11.40;;;5.75;;
73791;SDS011;62122;41.112;16.694;2022-08-03T04:24:07;13.88;;;6.75;;
73791;SDS011;62122;41.112;16.694;2022-08-03T04:27:14;9.73;;;4.93;;
73791;SDS011;62122;41.112;16.694;2022-08-03T04:30:23;8.68;;;4.85;;
73791;SDS011;62122;41.112;16.694;2022-08-03T04:33:30;9.38;;;4.85;;
73791;SDS011;62122;41.112;16.694;2022-08-03T04:36:39;12.68;;;6.25;;
73791;SDS011;62122;41.112;16.694;2022-08-03T04:39:51;9.13;;;4.40;;
73791;SDS011;62122;41.112;16.694;2022-08-03T04:42:57;9.73;;;4.60;;
73791;SDS011;62122;41.112;16.694;2022-08-03T04:46:02;12.73;;;5.63;;
73791;SDS011;62122;41.112;16.694;2022-08-03T04:49:07;9.70;;;5.00;;
73791;SDS011;62122;41.112;16.694;2022-08-03T04:52:12;9.43;;;5.07;;
73791;SDS011;62122;41.112;16.694;2022-08-03T04:55:29;13.13;;;5.20;;
73791;SDS011;62122;41.112;16.694;2022-08-03T04:58:35;15.55;;;5.95;;
73791;SDS011;62122;41.112;16.694;2022-08-03T05:01:40;13.63;;;5.80;;
73791;SDS011;62122;41.112;16.694;2022-08-03T05:04:46;12.32;;;5.80;;
73791;SDS011;62122;41.112;16.694;2022-08-03T05:07:50;15.32;;;6.07;;
73791;SDS011;62122;41.112;16.694;2022-08-03T05:10:55;17.23;;;5.28;;
73791;SDS011;62122;41.112;16.694;2022-08-03T05:13:59;10.05;;;4.70;;
73791;SDS011;62122;41.112;16.694;2022-08-03T05:17:03;9.95;;;4.80;;
73791;SDS011;62122;41.112;16.694;2022-08-03T05:20:08;14.48;;;5.13;;
73791;SDS011;62122;41.112;16.694;2022-08-03T05:23:14;11.43;;;4.32;;
73791;SDS011;62122;41.112;16.694;2022-08-03T05:26:18;14.15;;;5.18;;
73791;SDS011;62122;41.112;16.694;2022-08-03T05:29:23;8.30;;;5.20;;
73791;SDS011;62122;41.112;16.694;2022-08-03T05:32:27;12.77;;;5.68;;
73791;SDS011;62122;41.112;16.694;2022-08-03T05:35:31;11.93;;;5.20;;
73791;SDS011;62122;41.112;16.694;2022-08-03T05:38:37;13.70;;;5.20;;
73791;SDS011;62122;41.112;16.694;2022-08-03T05:41:41;15.43;;;5.25;;
73791;SDS011;62122;41.112;16.694;2022-08-03T05:44:45;14.30;;;5.63;;
73791;SDS011;62122;41.112;16.694;2022-08-03T05:47:50;11.98;;;5.03;;
73791;SDS011;62122;41.112;16.694;2022-08-03T05:50:53;18.90;;;5.38;;
73791;SDS011;62122;41.112;16.694;2022-08-03T05:53:57;14.93;;;5.30;;
73791;SDS011;62122;41.112;16.694;2022-08-03T05:57:01;13.63;;;5.80;;
73791;SDS011;62122;41.112;16.694;2022-08-03T06:00:08;17.75;;;6.32;;
73791;SDS011;62122;41.112;16.694;2022-08-03T06:03:17;12.63;;;5.18;;
73791;SDS011;62122;41.112;16.694;2022-08-03T06:06:20;12.55;;;5.40;;
73791;SDS011;62122;41.112;16.694;2022-08-03T06:09:26;14.23;;;5.32;;
73791;SDS011;62122;41.112;16.694;2022-08-03T06:12:30;13.53;;;5.17;;
73791;SDS011;62122;41.112;16.694;2022-08-03T06:15:33;12.80;;;5.32;;
73791;SDS011;62122;41.112;16.694;2022-08-03T06:18:39;10.52;;;5.03;;
73791;SDS011;62122;41.112;16.694;2022-08-03T06:21:42;11.88;;;5.15;;
73791;SDS011;62122;41.112;16.694;2022-08-03T06:24:46;9.02;;;4.68;;
73791;SDS011;62122;41.112;16.694;2022-08-03T06:27:50;8.68;;;5.03;;
73791;SDS011;62122;41.112;16.694;2022-08-03T06:30:54;11.60;;;5.63;;
73791;SDS011;62122;41.112;16.694;2022-08-03T06:33:58;8.68;;;4.70;;
73791;SDS011;62122;41.112;16.694;2022-08-03T06:37:03;10.95;;;5.13;;
73791;SDS011;62122;41.112;16.694;2022-08-03T06:40:07;9.68;;;5.00;;
73791;SDS011;62122;41.112;16.694;2022-08-03T06:43:12;8.03;;;5.20;;
73791;SDS011;62122;41.112;16.694;2022-08-03T06:46:18;9.65;;;4.50;;
73791;SDS011;62122;41.112;16.694;2022-08-03T06:49:22;11.38;;;4.55;;
73791;SDS011;62122;41.112;16.694;2022-08-03T06:52:25;8.75;;;4.20;;
73791;SDS011;62122;41.112;16.694;2022-08-03T06:55:29;8.57;;;4.20;;
73791;SDS011;62122;41.112;16.694;2022-08-03T06:58:34;10.73;;;4.50;;
73791;SDS011;62122;41.112;16.694;2022-08-03T07:01:38;9.18;;;4.28;;
73791;SDS011;62122;41.112;16.694;2022-08-03T07:04:42;9.27;;;4.35;;
73791;SDS011;62122;41.112;16.694;2022-08-03T07:07:45;8.52;;;4.28;;
73791;SDS011;62122;41.112;16.694;2022-08-03T07:10:49;11.50;;;4.50;;
73791;SDS011;62122;41.112;16.694;2022-08-03T07:13:53;9.33;;;4.00;;
73791;SDS011;62122;41.112;16.694;2022-08-03T07:16:57;8.82;;;4.07;;
73791;SDS011;62122;41.112;16.694;2022-08-03T07:20:01;12.57;;;5.28;;
73791;SDS011;62122;41.112;16.694;2022-08-03T07:23:08;7.47;;;4.18;;
73791;SDS011;62122;41.112;16.694;2022-08-03T07:26:12;7.85;;;4.50;;
73791;SDS011;62122;41.112;16.694;2022-08-03T07:29:15;9.53;;;4.33;;
73791;SDS011;62122;41.112;16.694;2022-08-03T07:32:19;9.73;;;4.25;;
73791;SDS011;62122;41.112;16.694;2022-08-03T07:35:23;8.13;;;4.30;;
73791;SDS011;62122;41.112;16.694;2022-08-03T07:38:27;7.63;;;4.47;;
73791;SDS011;62122;41.112;16.694;2022-08-03T07:41:32;9.57;;;4.50;;
73791;SDS011;62122;41.112;16.694;2022-08-03T07:44:35;9.70;;;4.60;;
73791;SDS011;62122;41.112;16.694;2022-08-03T07:47:41;6.93;;;4.60;;
73791;SDS011;62122;41.112;16.694;2022-08-03T07:50:46;10.80;;;4.45;;
73791;SDS011;62122;41.112;16.694;2022-08-03T07:53:50;7.88;;;4.60;;
73791;SDS011;62122;41.112;16.694;2022-08-03T07:56:54;11.30;;;4.65;;
73791;SDS011;62122;41.112;16.694;2022-08-03T07:59:58;6.60;;;4.47;;
73791;SDS011;62122;41.112;16.694;2022-08-03T08:03:02;7.78;;;4.43;;
73791;SDS011;62122;41.112;16.694;2022-08-03T08:06:08;10.13;;;4.10;;
73791;SDS011;62122;41.112;16.694;2022-08-03T08:09:12;14.63;;;4.57;;
73791;SDS011;62122;41.112;16.694;2022-08-03T08:12:16;9.18;;;4.38;;
73791;SDS011;62122;41.112;16.694;2022-08-03T08:15:22;9.50;;;4.63;;
73791;SDS011;62122;41.112;16.694;2022-08-03T08:18:26;9.35;;;4.20;;
73791;SDS011;62122;41.112;16.694;2022-08-03T08:21:34;8.88;;;4.40;;
73791;SDS011;62122;41.112;16.694;2022-08-03T08:24:38;9.93;;;5.10;;
73791;SDS011;62122;41.112;16.694;2022-08-03T08:27:46;8.05;;;5.15;;
73791;SDS011;62122;41.112;16.694;2022-08-03T08:30:51;12.83;;;6.20;;
73791;SDS011;62122;41.112;16.694;2022-08-03T08:33:55;9.52;;;4.75;;
73791;SDS011;62122;41.112;16.694;2022-08-03T08:36:59;10.80;;;5.20;;
73791;SDS011;62122;41.112;16.694;2022-08-03T08:40:04;13.80;;;4.90;;
73791;SDS011;62122;41.112;16.694;2022-08-03T08:43:08;9.10;;;4.78;;
73791;SDS011;62122;41.112;16.694;2022-08-03T08:46:12;8.93;;;4.83;;
73791;SDS011;62122;41.112;16.694;2022-08-03T08:49:17;10.48;;;5.07;;
73791;SDS011;62122;41.112;16.694;2022-08-03T08:52:26;9.90;;;4.57;;
73791;SDS011;62122;41.112;16.694;2022-08-03T08:55:32;10.70;;;4.70;;
73791;SDS011;62122;41.112;16.694;2022-08-03T08:58:37;9.85;;;4.50;;
73791;SDS011;62122;41.112;16.694;2022-08-03T09:01:46;6.93;;;4.70;;
73791;SDS011;62122;41.112;16.694;2022-08-03T09:04:50;9.32;;;5.28;;
73791;SDS011;62122;41.112;16.694;2022-08-03T09:07:55;7.38;;;3.78;;
73791;SDS011;62122;41.112;16.694;2022-08-03T09:10:59;10.38;;;4.60;;
73791;SDS011;62122;41.112;16.694;2022-08-03T09:14:03;7.60;;;4.00;;
73791;SDS011;62122;41.112;16.694;2022-08-03T09:17:07;7.63;;;4.23;;
73791;SDS011;62122;41.112;16.694;2022-08-03T09:20:12;15.63;;;4.90;;
73791;SDS011;62122;41.112;16.694;2022-08-03T09:23:16;16.38;;;5.18;;
73791;SDS011;62122;41.112;16.694;2022-08-03T09:26:21;9.13;;;4.40;;
73791;SDS011;62122;41.112;16.694;2022-08-03T09:29:26;7.63;;;4.38;;
73791;SDS011;62122;41.112;16.694;2022-08-03T09:32:35;8.00;;;4.53;;
73791;SDS011;62122;41.112;16.694;2022-08-03T09:35:40;8.90;;;4.72;;
73791;SDS011;62122;41.112;16.694;2022-08-03T09:38:59;8.75;;;5.30;;
73791;SDS011;62122;41.112;16.694;2022-08-03T09:45:09;9.07;;;4.10;;
73791;SDS011;62122;41.112;16.694;2022-08-03T09:48:29;13.03;;;5.17;;
73791;SDS011;62122;41.112;16.694;2022-08-03T09:51:37;8.30;;;5.25;;
73791;SDS011;62122;41.112;16.694;2022-08-03T09:54:42;7.35;;;4.82;;
73791;SDS011;62122;41.112;16.694;2022-08-03T09:58:02;11.38;;;4.90;;
73791;SDS011;62122;41.112;16.694;2022-08-03T10:01:08;9.52;;;4.78;;
73791;SDS011;62122;41.112;16.694;2022-08-03T10:04:13;9.23;;;4.93;;
73791;SDS011;62122;41.112;16.694;2022-08-03T10:07:19;7.80;;;4.72;;
73791;SDS011;62122;41.112;16.694;2022-08-03T10:10:25;11.50;;;4.20;;
73791;SDS011;62122;41.112;16.694;2022-08-03T10:13:29;7.22;;;4.00;;
73791;SDS011;62122;41.112;16.694;2022-08-03T10:16:34;8.90;;;3.72;;
73791;SDS011;62122;41.112;16.694;2022-08-03T10:19:40;5.37;;;3.37;;
73791;SDS011;62122;41.112;16.694;2022-08-03T10:22:43;6.25;;;4.03;;
73791;SDS011;62122;41.112;16.694;2022-08-03T10:25:48;7.43;;;4.07;;
73791;SDS011;62122;41.112;16.694;2022-08-03T10:28:57;8.00;;;3.58;;
73791;SDS011;62122;41.112;16.694;2022-08-03T10:32:03;8.77;;;3.80;;
73791;SDS011;62122;41.112;16.694;2022-08-03T10:35:18;9.83;;;3.83;;
73791;SDS011;62122;41.112;16.694;2022-08-03T10:38:36;7.72;;;3.70;;
73791;SDS011;62122;41.112;16.694;2022-08-03T10:41:43;6.05;;;3.90;;
73791;SDS011;62122;41.112;16.694;2022-08-03T10:44:50;6.93;;;3.63;;
73791;SDS011;62122;41.112;16.694;2022-08-03T10:48:18;12.02;;;3.97;;
73791;SDS011;62122;41.112;16.694;2022-08-03T10:51:23;5.60;;;4.10;;
73791;SDS011;62122;41.112;16.694;2022-08-03T10:57:47;13.50;;;3.75;;
73791;SDS011;62122;41.112;16.694;2022-08-03T11:00:52;9.35;;;3.80;;
73791;SDS011;62122;41.112;16.694;2022-08-03T11:10:29;7.80;;;3.58;;
73791;SDS011;62122;41.112;16.694;2022-08-03T11:13:34;6.15;;;3.60;;
73791;SDS011;62122;41.112;16.694;2022-08-03T11:16:39;6.78;;;3.40;;
73791;SDS011;62122;41.112;16.694;2022-08-03T11:19:46;6.22;;;3.83;;
73791;SDS011;62122;41.112;16.694;2022-08-03T11:22:54;8.43;;;3.37;;
73791;SDS011;62122;41.112;16.694;2022-08-03T11:26:07;5.07;;;2.97;;
73791;SDS011;62122;41.112;16.694;2022-08-03T11:29:27;5.85;;;3.42;;
73791;SDS011;62122;41.112;16.694;2022-08-03T11:35:58;7.45;;;3.60;;
73791;SDS011;62122;41.112;16.694;2022-08-03T11:39:13;6.63;;;3.43;;
73791;SDS011;62122;41.112;16.694;2022-08-03T11:45:25;5.03;;;3.20;;
73791;SDS011;62122;41.112;16.694;2022-08-03T11:48:33;7.65;;;3.47;;
73791;SDS011;62122;41.112;16.694;2022-08-03T11:51:40;7.68;;;3.42;;
73791;SDS011;62122;41.112;16.694;2022-08-03T11:54:44;9.17;;;3.90;;
73791;SDS011;62122;41.112;16.694;2022-08-03T11:57:52;5.88;;;3.40;;
73791;SDS011;62122;41.112;16.694;2022-08-03T12:01:04;5.15;;;3.40;;
73791;SDS011;62122;41.112;16.694;2022-08-03T12:04:10;7.00;;;3.28;;
73791;SDS011;62122;41.112;16.694;2022-08-03T12:07:14;5.03;;;3.45;;
73791;SDS011;62122;41.112;16.694;2022-08-03T12:10:18;7.90;;;3.30;;
73791;SDS011;62122;41.112;16.694;2022-08-03T12:13:21;4.82;;;3.22;;
73791;SDS011;62122;41.112;16.694;2022-08-03T12:16:29;6.90;;;3.20;;
73791;SDS011;62122;41.112;16.694;2022-08-03T12:19:43;4.68;;;3.30;;
73791;SDS011;62122;41.112;16.694;2022-08-03T12:22:47;8.32;;;3.40;;
73791;SDS011;62122;41.112;16.694;2022-08-03T12:25:51;6.90;;;3.37;;
73791;SDS011;62122;41.112;16.694;2022-08-03T12:28:54;7.13;;;3.10;;
73791;SDS011;62122;41.112;16.694;2022-08-03T12:31:59;5.07;;;2.90;;
73791;SDS011;62122;41.112;16.694;2022-08-03T12:35:03;5.47;;;3.03;;
73791;SDS011;62122;41.112;16.694;2022-08-03T12:38:09;5.00;;;3.03;;
73791;SDS011;62122;41.112;16.694;2022-08-03T12:41:14;7.20;;;3.10;;
73791;SDS011;62122;41.112;16.694;2022-08-03T12:44:28;5.25;;;3.42;;
73791;SDS011;62122;41.112;16.694;2022-08-03T12:47:48;6.60;;;3.10;;
73791;SDS011;62122;41.112;16.694;2022-08-03T12:51:05;5.25;;;2.90;;
73791;SDS011;62122;41.112;16.694;2022-08-03T12:54:20;6.13;;;3.25;;
73791;SDS011;62122;41.112;16.694;2022-08-03T12:57:38;8.50;;;3.57;;
73791;SDS011;62122;41.112;16.694;2022-08-03T13:00:54;5.75;;;2.90;;
73791;SDS011;62122;41.112;16.694;2022-08-03T13:03:58;4.50;;;3.50;;
73791;SDS011;62122;41.112;16.694;2022-08-03T13:07:03;5.88;;;3.70;;
73791;SDS011;62122;41.112;16.694;2022-08-03T13:10:09;10.73;;;3.70;;
73791;SDS011;62122;41.112;16.694;2022-08-03T13:13:13;7.00;;;3.40;;
73791;SDS011;62122;41.112;16.694;2022-08-03T13:16:18;8.15;;;4.22;;
73791;SDS011;62122;41.112;16.694;2022-08-03T13:19:24;6.57;;;3.40;;
73791;SDS011;62122;41.112;16.694;2022-08-03T13:22:28;8.25;;;3.55;;
73791;SDS011;62122;41.112;16.694;2022-08-03T13:25:32;5.95;;;3.33;;
73791;SDS011;62122;41.112;16.694;2022-08-03T13:28:36;5.13;;;3.30;;
73791;SDS011;62122;41.112;16.694;2022-08-03T13:31:43;4.25;;;3.08;;
73791;SDS011;62122;41.112;16.694;2022-08-03T13:34:48;4.85;;;3.28;;
73791;SDS011;62122;41.112;16.694;2022-08-03T13:37:52;7.60;;;4.15;;
73791;SDS011;62122;41.112;16.694;2022-08-03T13:40:55;7.45;;;3.65;;
73791;SDS011;62122;41.112;16.694;2022-08-03T13:43:59;7.30;;;3.87;;
73791;SDS011;62122;41.112;16.694;2022-08-03T13:47:03;5.95;;;3.53;;
73791;SDS011;62122;41.112;16.694;2022-08-03T13:50:07;8.98;;;3.03;;
73791;SDS011;62122;41.112;16.694;2022-08-03T13:53:11;6.25;;;4.60;;
73791;SDS011;62122;41.112;16.694;2022-08-03T13:56:15;8.52;;;4.22;;
73791;SDS011;62122;41.112;16.694;2022-08-03T13:59:19;7.23;;;3.80;;
73791;SDS011;62122;41.112;16.694;2022-08-03T14:02:27;10.18;;;4.10;;
73791;SDS011;62122;41.112;16.694;2022-08-03T14:05:31;8.18;;;3.90;;
73791;SDS011;62122;41.112;16.694;2022-08-03T14:08:35;7.78;;;3.90;;
73791;SDS011;62122;41.112;16.694;2022-08-03T14:11:39;7.28;;;4.05;;
73791;SDS011;62122;41.112;16.694;2022-08-03T14:14:44;7.27;;;4.10;;
73791;SDS011;62122;41.112;16.694;2022-08-03T14:17:47;7.82;;;4.05;;
73791;SDS011;62122;41.112;16.694;2022-08-03T14:20:51;6.45;;;4.25;;
73791;SDS011;62122;41.112;16.694;2022-08-03T14:23:55;6.90;;;3.92;;
73791;SDS011;62122;41.112;16.694;2022-08-03T14:26:59;7.05;;;5.55;;
73791;SDS011;62122;41.112;16.694;2022-08-03T14:30:03;7.33;;;4.20;;
73791;SDS011;62122;41.112;16.694;2022-08-03T14:33:07;8.77;;;4.20;;
73791;SDS011;62122;41.112;16.694;2022-08-03T14:36:12;6.45;;;4.20;;
73791;SDS011;62122;41.112;16.694;2022-08-03T14:39:15;6.43;;;4.03;;
73791;SDS011;62122;41.112;16.694;2022-08-03T14:42:19;5.97;;;4.18;;
73791;SDS011;62122;41.112;16.694;2022-08-03T14:45:24;10.27;;;4.90;;
73791;SDS011;62122;41.112;16.694;2022-08-03T14:48:28;6.68;;;4.15;;
73791;SDS011;62122;41.112;16.694;2022-08-03T14:51:32;6.80;;;4.20;;
73791;SDS011;62122;41.112;16.694;2022-08-03T14:54:35;6.28;;;4.13;;
73791;SDS011;62122;41.112;16.694;2022-08-03T14:57:40;6.65;;;4.30;;
73791;SDS011;62122;41.112;16.694;2022-08-03T15:00:43;7.23;;;4.50;;
73791;SDS011;62122;41.112;16.694;2022-08-03T15:03:48;6.30;;;4.13;;
73791;SDS011;62122;41.112;16.694;2022-08-03T15:06:52;7.40;;;4.22;;
73791;SDS011;62122;41.112;16.694;2022-08-03T15:09:57;11.45;;;4.53;;
73791;SDS011;62122;41.112;16.694;2022-08-03T15:13:02;6.88;;;4.32;;
73791;SDS011;62122;41.112;16.694;2022-08-03T15:16:05;5.60;;;4.00;;
73791;SDS011;62122;41.112;16.694;2022-08-03T15:19:11;5.93;;;3.97;;
73791;SDS011;62122;41.112;16.694;2022-08-03T15:22:15;5.43;;;3.88;;
73791;SDS011;62122;41.112;16.694;2022-08-03T15:25:19;5.78;;;3.92;;
73791;SDS011;62122;41.112;16.694;2022-08-03T15:28:23;6.25;;;4.30;;
73791;SDS011;62122;41.112;16.694;2022-08-03T15:31:27;5.37;;;4.07;;
73791;SDS011;62122;41.112;16.694;2022-08-03T15:34:30;6.95;;;4.35;;
73791;SDS011;62122;41.112;16.694;2022-08-03T15:37:34;6.30;;;4.40;;
73791;SDS011;62122;41.112;16.694;2022-08-03T15:40:38;5.75;;;3.90;;
73791;SDS011;62122;41.112;16.694;2022-08-03T15:43:42;5.97;;;4.20;;
73791;SDS011;62122;41.112;16.694;2022-08-03T15:46:48;5.33;;;4.53;;
73791;SDS011;62122;41.112;16.694;2022-08-03T15:49:55;10.32;;;4.38;;
73791;SDS011;62122;41.112;16.694;2022-08-03T15:52:59;7.07;;;4.82;;
73791;SDS011;62122;41.112;16.694;2022-08-03T15:56:03;5.88;;;4.53;;
73791;SDS011;62122;41.112;16.694;2022-08-03T15:59:07;7.18;;;4.43;;
73791;SDS011;62122;41.112;16.694;2022-08-03T16:02:12;5.93;;;4.37;;
73791;SDS011;62122;41.112;16.694;2022-08-03T16:05:16;6.50;;;4.72;;
73791;SDS011;62122;41.112;16.694;2022-08-03T16:08:21;7.15;;;5.13;;
73791;SDS011;62122;41.112;16.694;2022-08-03T16:11:25;5.65;;;4.45;;
73791;SDS011;62122;41.112;16.694;2022-08-03T16:14:29;5.97;;;4.22;;
73791;SDS011;62122;41.112;16.694;2022-08-03T16:17:33;6.10;;;4.47;;
73791;SDS011;62122;41.112;16.694;2022-08-03T16:20:37;7.63;;;4.28;;
73791;SDS011;62122;41.112;16.694;2022-08-03T16:23:40;6.00;;;4.60;;
73791;SDS011;62122;41.112;16.694;2022-08-03T16:26:44;5.22;;;4.50;;
73791;SDS011;62122;41.112;16.694;2022-08-03T16:29:48;5.85;;;4.65;;
73791;SDS011;62122;41.112;16.694;2022-08-03T16:32:52;7.97;;;4.13;;
73791;SDS011;62122;41.112;16.694;2022-08-03T16:35:56;10.18;;;5.00;;
73791;SDS011;62122;41.112;16.694;2022-08-03T16:38:59;6.82;;;4.70;;
73791;SDS011;62122;41.112;16.694;2022-08-03T16:42:03;10.48;;;4.47;;
73791;SDS011;62122;41.112;16.694;2022-08-03T16:45:08;7.03;;;4.82;;
73791;SDS011;62122;41.112;16.694;2022-08-03T16:48:13;5.50;;;4.20;;
73791;SDS011;62122;41.112;16.694;2022-08-03T16:51:18;6.22;;;4.70;;
73791;SDS011;62122;41.112;16.694;2022-08-03T16:54:23;5.80;;;4.45;;
73791;SDS011;62122;41.112;16.694;2022-08-03T16:57:27;6.07;;;4.90;;
73791;SDS011;62122;41.112;16.694;2022-08-03T17:00:33;6.28;;;4.38;;
73791;SDS011;62122;41.112;16.694;2022-08-03T17:03:38;6.07;;;4.30;;
73791;SDS011;62122;41.112;16.694;2022-08-03T17:06:43;8.10;;;4.78;;
73791;SDS011;62122;41.112;16.694;2022-08-03T17:09:47;7.07;;;4.38;;
73791;SDS011;62122;41.112;16.694;2022-08-03T17:12:51;5.40;;;4.75;;
73791;SDS011;62122;41.112;16.694;2022-08-03T17:15:55;8.63;;;5.25;;
73791;SDS011;62122;41.112;16.694;2022-08-03T17:19:02;7.53;;;5.00;;
73791;SDS011;62122;41.112;16.694;2022-08-03T17:22:12;8.05;;;4.65;;
73791;SDS011;62122;41.112;16.694;2022-08-03T17:25:17;6.78;;;4.90;;
73791;SDS011;62122;41.112;16.694;2022-08-03T17:28:21;9.25;;;4.93;;
73791;SDS011;62122;41.112;16.694;2022-08-03T17:31:27;9.85;;;5.60;;
73791;SDS011;62122;41.112;16.694;2022-08-03T17:34:31;7.33;;;5.27;;
73791;SDS011;62122;41.112;16.694;2022-08-03T17:37:35;8.57;;;5.70;;
73791;SDS011;62122;41.112;16.694;2022-08-03T17:40:40;7.63;;;6.75;;
73791;SDS011;62122;41.112;16.694;2022-08-03T17:43:44;8.65;;;7.22;;
73791;SDS011;62122;41.112;16.694;2022-08-03T17:46:49;7.70;;;6.80;;
73791;SDS011;62122;41.112;16.694;2022-08-03T17:49:53;7.40;;;6.53;;
73791;SDS011;62122;41.112;16.694;2022-08-03T17:53:01;8.57;;;6.07;;
73791;SDS011;62122;41.112;16.694;2022-08-03T18:03:07;8.77;;;6.60;;
73791;SDS011;62122;41.112;16.694;2022-08-03T18:06:23;9.50;;;7.10;;
73791;SDS011;62122;41.112;16.694;2022-08-03T18:09:33;9.60;;;7.07;;
73791;SDS011;62122;41.112;16.694;2022-08-03T18:12:47;10.38;;;7.50;;
73791;SDS011;62122;41.112;16.694;2022-08-03T18:19:04;9.65;;;7.32;;
73791;SDS011;62122;41.112;16.694;2022-08-03T18:22:09;9.10;;;7.53;;
73791;SDS011;62122;41.112;16.694;2022-08-03T18:25:14;8.85;;;7.55;;
73791;SDS011;62122;41.112;16.694;2022-08-03T18:28:19;10.73;;;7.75;;
73791;SDS011;62122;41.112;16.694;2022-08-03T18:31:24;11.27;;;8.80;;
73791;SDS011;62122;41.112;16.694;2022-08-03T18:34:29;12.77;;;10.35;;
73791;SDS011;62122;41.112;16.694;2022-08-03T18:37:35;14.85;;;10.93;;
73791;SDS011;62122;41.112;16.694;2022-08-03T18:40:41;13.98;;;10.93;;
73791;SDS011;62122;41.112;16.694;2022-08-03T18:43:45;12.73;;;11.15;;
73791;SDS011;62122;41.112;16.694;2022-08-03T18:50:06;13.40;;;11.55;;
73791;SDS011;62122;41.112;16.694;2022-08-03T18:57:05;13.38;;;10.98;;
73791;SDS011;62122;41.112;16.694;2022-08-03T19:00:15;13.60;;;10.90;;
73791;SDS011;62122;41.112;16.694;2022-08-03T19:03:21;13.05;;;10.77;;
73791;SDS011;62122;41.112;16.694;2022-08-03T19:06:27;13.73;;;10.18;;